createdAt,value
2019-02-28T00:02:27.606Z,5.23
2019-02-28T00:06:31.773Z,5.17
2019-02-28T00:10:35.986Z,5.05
2019-02-28T00:14:40.334Z,4.98
2019-02-28T00:18:49.524Z,4.89
2019-02-28T00:22:50.463Z,4.83
2019-02-28T00:26:54.696Z,4.84
2019-02-28T00:30:58.916Z,4.83
2019-02-28T00:35:03.437Z,4.77
2019-02-28T00:39:08.026Z,4.77
2019-02-28T00:43:12.248Z,4.77
2019-02-28T00:47:17.157Z,4.78
2019-02-28T00:51:21.540Z,4.75
2019-02-28T00:55:26.187Z,4.66
2019-02-28T00:59:31.727Z,4.62
2019-02-28T01:03:36.305Z,4.54
2019-02-28T01:07:40.518Z,4.46
2019-02-28T01:11:45.552Z,4.43
2019-02-28T01:15:49.889Z,4.40
2019-02-28T01:19:54.086Z,4.31
2019-02-28T01:24:00.558Z,4.17
2019-02-28T01:28:05.313Z,4.08
2019-02-28T01:32:09.538Z,4.00
2019-02-28T01:36:15.550Z,3.98
2019-02-28T01:40:20.048Z,3.97
2019-02-28T01:44:24.627Z,3.99
2019-02-28T01:48:28.854Z,4.02
2019-02-28T01:52:33.069Z,4.02
2019-02-28T01:56:37.912Z,4.02
2019-02-28T02:00:42.207Z,4.04
2019-02-28T02:04:46.700Z,3.96
2019-02-28T02:08:50.947Z,3.90
2019-02-28T02:12:55.114Z,3.85
2019-02-28T02:17:01.088Z,3.84
2019-02-28T02:21:05.291Z,3.88
2019-02-28T02:25:09.743Z,3.93
2019-02-28T02:29:14.064Z,3.99
2019-02-28T02:33:18.993Z,4.01
2019-02-28T02:37:26.441Z,4.23
2019-02-28T02:41:33.267Z,4.42
2019-02-28T02:45:41.681Z,4.34
2019-02-28T02:49:40.954Z,4.29
2019-02-28T02:53:45.175Z,4.24
2019-02-28T02:57:51.661Z,4.23
2019-02-28T03:01:57.110Z,4.21
2019-02-28T03:06:01.466Z,4.21
2019-02-28T03:10:06.451Z,4.20
2019-02-28T03:14:10.635Z,4.21
2019-02-28T03:18:14.849Z,4.21
2019-02-28T03:22:19.411Z,4.21
2019-02-28T03:26:23.664Z,4.13
2019-02-28T03:30:32.366Z,4.07
2019-02-28T03:34:33.838Z,4.01
2019-02-28T03:38:38.063Z,4.01
2019-02-28T03:42:42.294Z,3.99
2019-02-28T03:46:47.813Z,4.02
2019-02-28T03:50:55.299Z,4.06
2019-02-28T03:55:03.255Z,4.04
2019-02-28T03:59:04.063Z,4.07
2019-02-28T04:03:08.414Z,4.10
2019-02-28T04:07:16.020Z,4.11
2019-02-28T04:11:18.553Z,4.15
2019-02-28T04:15:22.770Z,4.21
2019-02-28T04:19:27.417Z,4.24
2019-02-28T04:23:35.953Z,4.36
2019-02-28T04:27:40.157Z,4.40
2019-02-28T04:31:43.631Z,4.55
2019-02-28T04:35:47.848Z,4.76
2019-02-28T04:39:53.307Z,5.02
2019-02-28T04:43:58.027Z,5.26
2019-02-28T04:48:02.205Z,5.59
2019-02-28T04:52:06.429Z,5.84
2019-02-28T04:56:11.423Z,6.24
2019-02-28T05:00:16.533Z,6.81
2019-02-28T05:04:20.720Z,7.28
2019-02-28T05:08:24.923Z,7.54
2019-02-28T05:12:29.133Z,7.78
2019-02-28T05:16:33.324Z,8.01
2019-02-28T05:20:37.546Z,8.38
2019-02-28T05:24:42.591Z,8.64
2019-02-28T05:28:47.888Z,8.86
2019-02-28T05:32:52.123Z,8.96
2019-02-28T05:36:56.358Z,9.09
2019-02-28T05:41:00.653Z,9.23
2019-02-28T05:45:05.371Z,9.45
2019-02-28T05:49:09.854Z,9.61
2019-02-28T05:53:14.176Z,9.89
2019-02-28T05:57:18.404Z,10.09
2019-02-28T06:01:22.758Z,10.20
2019-02-28T06:05:27.295Z,10.23
2019-02-28T06:09:31.490Z,10.31
2019-02-28T06:13:37.097Z,10.38
2019-02-28T06:17:41.516Z,10.40
2019-02-28T06:21:45.824Z,10.42
2019-02-28T06:25:50.094Z,10.53
2019-02-28T06:29:54.280Z,10.67
2019-02-28T06:33:58.527Z,10.81
2019-02-28T06:38:03.104Z,10.92
2019-02-28T06:42:07.337Z,10.96
2019-02-28T06:46:11.589Z,11.01
2019-02-28T06:50:16.020Z,11.10
2019-02-28T06:54:19.245Z,11.24
2019-02-28T06:58:23.485Z,11.35
2019-02-28T07:02:28.514Z,11.52
2019-02-28T07:06:35.951Z,11.64
2019-02-28T07:10:41.488Z,11.77
2019-02-28T07:14:49.354Z,11.81
2019-02-28T07:18:53.742Z,11.89
2019-02-28T07:22:57.801Z,11.95
2019-02-28T07:27:04.178Z,12.01
2019-02-28T07:31:07.974Z,12.10
2019-02-28T07:35:12.198Z,12.20
2019-02-28T07:39:16.404Z,12.45
2019-02-28T07:43:20.627Z,12.45
2019-02-28T07:47:25.503Z,12.61
2019-02-28T07:51:29.829Z,12.88
2019-02-28T07:55:34.072Z,12.88
2019-02-28T07:59:42.383Z,13.02
2019-02-28T08:03:44.951Z,13.13
2019-02-28T08:07:52.148Z,13.21
2019-02-28T08:11:56.759Z,13.28
2019-02-28T08:16:01.081Z,13.32
2019-02-28T08:20:06.413Z,13.40
2019-02-28T08:24:10.648Z,13.46
2019-02-28T08:28:14.902Z,13.53
2019-02-28T08:32:19.130Z,13.61
2019-02-28T08:36:23.373Z,13.72
2019-02-28T08:40:27.710Z,13.80
2019-02-28T08:44:31.933Z,13.88
2019-02-28T08:48:36.109Z,13.98
2019-02-28T08:52:42.133Z,14.05
2019-02-28T08:56:49.671Z,14.18
2019-02-28T09:00:52.650Z,14.28
2019-02-28T09:04:56.825Z,14.37
2019-02-28T09:09:01.201Z,14.47
2019-02-28T09:13:08.623Z,14.56
2019-02-28T09:17:11.420Z,14.66
2019-02-28T09:21:18.280Z,14.77
2019-02-28T09:25:22.771Z,14.89
2019-02-28T09:29:27.112Z,15.03
2019-02-28T09:33:31.632Z,15.18
2019-02-28T09:37:35.865Z,15.33
2019-02-28T09:41:41.239Z,15.50
2019-02-28T09:45:45.529Z,15.60
2019-02-28T09:49:49.742Z,15.75
2019-02-28T09:53:54.311Z,15.81
2019-02-28T09:57:58.529Z,15.81
2019-02-28T10:02:08.093Z,15.84
2019-02-28T10:06:08.665Z,15.90
2019-02-28T10:10:17.523Z,15.98
2019-02-28T10:14:21.195Z,16.01
2019-02-28T10:18:25.852Z,16.15
2019-02-28T10:22:30.485Z,16.19
2019-02-28T10:26:34.704Z,16.22
2019-02-28T10:30:38.917Z,16.33
2019-02-28T10:34:43.137Z,16.43
2019-02-28T10:38:47.362Z,16.52
2019-02-28T10:42:51.645Z,16.57
2019-02-28T10:46:55.868Z,16.71
2019-02-28T10:51:00.087Z,16.80
2019-02-28T10:55:05.018Z,16.84
2019-02-28T10:59:09.576Z,16.91
2019-02-28T11:03:13.872Z,16.98
2019-02-28T11:07:18.092Z,17.05
2019-02-28T11:11:22.351Z,17.12
2019-02-28T11:15:27.083Z,17.18
2019-02-28T11:19:31.568Z,17.31
2019-02-28T11:23:35.792Z,17.36
2019-02-28T11:27:41.861Z,17.44
2019-02-28T11:31:46.100Z,17.52
2019-02-28T11:35:50.531Z,17.61
2019-02-28T11:39:54.761Z,17.71
2019-02-28T11:43:58.986Z,17.76
2019-02-28T11:48:04.349Z,17.80
2019-02-28T11:52:08.735Z,17.78
2019-02-28T11:56:12.945Z,17.84
2019-02-28T12:00:22.941Z,17.87
2019-02-28T12:04:27.144Z,17.80
2019-02-28T12:08:31.377Z,17.85
2019-02-28T12:12:35.556Z,17.92
2019-02-28T12:16:39.873Z,17.96
2019-02-28T12:20:44.062Z,17.98
2019-02-28T12:24:48.568Z,18.05
2019-02-28T12:28:54.369Z,18.10
2019-02-28T12:32:58.610Z,18.14
2019-02-28T12:37:02.809Z,18.15
2019-02-28T12:41:07.052Z,18.22
2019-02-28T12:45:14.686Z,18.27
2019-02-28T12:49:21.835Z,18.26
2019-02-28T12:53:25.492Z,18.23
2019-02-28T12:57:29.843Z,18.37
2019-02-28T13:01:34.378Z,18.39
2019-02-28T13:05:38.640Z,18.43
2019-02-28T13:09:43.283Z,18.44
2019-02-28T13:13:47.504Z,18.41
2019-02-28T13:17:51.942Z,18.40
2019-02-28T13:21:56.195Z,18.36
2019-02-28T13:26:00.773Z,18.35
2019-02-28T13:30:10.542Z,18.35
2019-02-28T13:34:12.438Z,18.38
2019-02-28T13:38:19.082Z,18.33
2019-02-28T13:42:22.549Z,18.32
2019-02-28T13:46:34.258Z,18.30
2019-02-28T13:50:38.676Z,18.29
2019-02-28T13:54:43.345Z,18.31
2019-02-28T13:58:47.600Z,18.32
2019-02-28T14:02:53.510Z,18.32
2019-02-28T14:06:57.765Z,18.38
2019-02-28T14:11:01.973Z,18.40
2019-02-28T14:15:07.367Z,18.41
2019-02-28T14:19:11.690Z,18.43
2019-02-28T14:23:20.333Z,18.42
2019-02-28T14:27:25.233Z,18.43
2019-02-28T14:31:29.574Z,18.43
2019-02-28T14:35:36.578Z,18.45
2019-02-28T14:39:42.691Z,18.49
2019-02-28T14:43:46.311Z,18.50
2019-02-28T14:47:56.782Z,18.48
2019-02-28T14:52:00.342Z,18.44
2019-02-28T14:56:06.939Z,18.39
2019-02-28T15:00:13.423Z,18.38
2019-02-28T15:04:17.659Z,18.34
2019-02-28T15:08:21.860Z,18.28
2019-02-28T15:12:26.083Z,18.20
2019-02-28T15:16:30.612Z,18.15
2019-02-28T15:20:35.015Z,18.11
2019-02-28T15:24:40.538Z,18.09
2019-02-28T15:28:48.550Z,18.03
2019-02-28T15:32:54.384Z,17.99
2019-02-28T15:36:59.184Z,17.94
2019-02-28T15:41:03.789Z,17.87
2019-02-28T15:45:08.747Z,17.83
2019-02-28T15:49:12.978Z,17.78
2019-02-28T15:53:17.204Z,17.70
2019-02-28T15:57:21.430Z,17.67
2019-02-28T16:01:28.633Z,17.61
2019-02-28T16:05:31.547Z,17.56
2019-02-28T16:09:35.779Z,17.51
2019-02-28T16:13:40.348Z,17.49
2019-02-28T16:17:44.878Z,17.41
2019-02-28T16:21:49.218Z,17.34
2019-02-28T16:25:53.440Z,17.31
2019-02-28T16:29:57.652Z,17.24
2019-02-28T16:34:08.361Z,17.18
2019-02-28T16:38:10.111Z,17.16
2019-02-28T16:42:14.885Z,17.09
2019-02-28T16:46:19.107Z,17.04
2019-02-28T16:50:23.314Z,17.01
2019-02-28T16:58:29.836Z,16.92
2019-02-28T17:02:34.228Z,16.88
2019-02-28T17:06:38.497Z,16.89
2019-02-28T17:10:43.387Z,16.86
2019-02-28T17:14:49.208Z,16.83
2019-02-28T17:18:56.665Z,16.83
2019-02-28T17:23:01.375Z,16.79
2019-02-28T17:27:13.827Z,16.74
2019-02-28T17:31:44.629Z,16.72
2019-02-28T17:35:47.959Z,16.72
2019-02-28T17:39:52.219Z,16.70
2019-02-28T17:44:37.496Z,16.68
2019-02-28T17:49:15.037Z,16.65
2019-02-28T17:53:50.864Z,16.65
2019-02-28T17:58:24.803Z,16.61
2019-02-28T18:03:12.993Z,16.54
2019-02-28T18:07:34.318Z,16.51
2019-02-28T18:11:49.938Z,16.49
2019-02-28T18:16:50.301Z,16.46
2019-02-28T18:21:44.995Z,16.44
2019-02-28T18:26:38.570Z,16.39
2019-02-28T18:31:07.994Z,16.33
2019-02-28T18:35:12.266Z,16.30
2019-02-28T18:39:16.503Z,16.28
2019-02-28T18:43:20.670Z,16.26
2019-02-28T18:47:24.910Z,16.22
2019-02-28T18:51:29.132Z,16.18
2019-02-28T18:55:35.166Z,16.15
2019-02-28T18:59:39.845Z,16.11
2019-02-28T19:03:44.091Z,16.08
2019-02-28T19:07:48.383Z,16.03
2019-02-28T19:11:52.826Z,15.98
2019-02-28T19:15:57.029Z,15.98
2019-02-28T19:20:01.670Z,15.96
2019-02-28T19:24:05.932Z,15.95
2019-02-28T19:28:10.141Z,15.92
2019-02-28T19:32:14.333Z,15.88
2019-02-28T19:36:18.525Z,15.87
2019-02-28T19:40:22.747Z,15.84
2019-02-28T19:44:26.986Z,15.83
2019-02-28T19:48:32.815Z,15.81
2019-02-28T19:52:37.019Z,15.81
2019-02-28T19:56:41.250Z,15.80
2019-02-28T20:00:45.573Z,15.74
2019-02-28T20:04:49.800Z,15.70
2019-02-28T20:08:54.043Z,15.64
2019-02-28T20:12:58.305Z,15.63
2019-02-28T20:17:02.489Z,15.60
2019-02-28T20:21:07.102Z,15.57
2019-02-28T20:25:12.609Z,15.53
2019-02-28T20:29:16.843Z,15.54
2019-02-28T20:33:21.089Z,15.51
2019-02-28T20:37:25.320Z,15.47
2019-02-28T20:41:29.571Z,15.44
2019-02-28T20:45:33.751Z,15.40
2019-02-28T20:49:37.993Z,15.36
2019-02-28T20:53:42.214Z,15.31
2019-02-28T20:57:46.529Z,15.25
2019-02-28T21:01:50.722Z,15.21
2019-02-28T21:05:54.940Z,15.17
2019-02-28T21:09:59.163Z,15.16
2019-02-28T21:14:03.629Z,15.13
2019-02-28T21:18:07.860Z,15.09
2019-02-28T21:22:12.031Z,15.10
2019-02-28T21:26:16.254Z,15.08
2019-02-28T21:30:21.735Z,15.08
2019-02-28T21:34:25.993Z,15.02
2019-02-28T21:38:30.334Z,14.99
2019-02-28T21:42:34.593Z,14.93
2019-02-28T21:46:38.887Z,14.89
2019-02-28T21:50:43.088Z,14.84
2019-02-28T21:54:47.308Z,14.84
2019-02-28T21:58:51.832Z,14.81
2019-02-28T22:02:56.054Z,14.82
2019-02-28T22:07:00.225Z,14.82
2019-02-28T22:11:04.439Z,14.80
2019-02-28T22:15:12.499Z,14.77
2019-02-28T22:19:16.693Z,14.75
2019-02-28T22:23:20.877Z,14.72
2019-02-28T22:27:25.093Z,14.70
2019-02-28T22:31:45.892Z,14.68
2019-02-28T22:35:52.887Z,14.65
2019-02-28T22:39:57.485Z,14.66
2019-02-28T22:44:01.742Z,14.68
2019-02-28T22:48:05.978Z,14.68
2019-02-28T22:52:10.161Z,14.67
2019-02-28T22:56:14.375Z,14.68
2019-02-28T23:00:46.740Z,14.67
2019-02-28T23:04:51.014Z,14.63
2019-02-28T23:08:55.199Z,14.59
2019-02-28T23:13:00.046Z,14.55
2019-02-28T23:17:04.508Z,14.52
2019-02-28T23:21:08.770Z,14.52
2019-02-28T23:25:13.291Z,14.49
2019-02-28T23:29:19.844Z,14.48
2019-02-28T23:33:24.045Z,14.45
2019-02-28T23:37:28.373Z,14.46
2019-02-28T23:41:32.590Z,14.42
2019-02-28T23:45:36.814Z,14.41
2019-02-28T23:49:41.043Z,14.41
2019-02-28T23:53:45.273Z,14.43
2019-02-28T23:57:49.459Z,14.42
